createdAt,value
2022-11-10T00:01:48.480Z,101486.41
2022-11-10T00:04:35.475Z,101492.63
2022-11-10T00:07:27.553Z,101497.03
2022-11-10T00:10:15.446Z,101488.19
2022-11-10T00:13:02.884Z,101496.16
2022-11-10T00:16:07.525Z,101492.63
2022-11-10T00:18:54.338Z,101500.56
2022-11-10T00:21:41.304Z,101373.56
2022-11-10T00:24:30.436Z,101520.06
2022-11-10T00:27:17.244Z,101418.56
2022-11-10T00:30:04.550Z,101521.81
2022-11-10T00:32:51.697Z,101520.06
2022-11-10T00:35:38.743Z,101512.03
2022-11-10T00:38:25.606Z,101507.56
2022-11-10T00:41:13.857Z,101512.91
2022-11-10T00:44:01.277Z,101500.53
2022-11-10T00:46:47.980Z,101261.59
2022-11-10T00:49:34.552Z,101505.91
2022-11-10T00:52:21.521Z,101523.59
2022-11-10T00:55:09.917Z,101532.53
2022-11-10T00:57:58.218Z,101501.59
2022-11-10T01:00:45.309Z,101530.72
2022-11-10T01:03:32.711Z,101506.03
2022-11-10T01:06:21.863Z,101527.22
2022-11-10T01:09:08.742Z,101502.50
2022-11-10T01:11:55.830Z,101527.25
2022-11-10T01:14:44.185Z,101505.19
2022-11-10T01:17:31.971Z,101534.38
2022-11-10T01:20:19.099Z,101532.56
2022-11-10T01:23:06.195Z,101538.78
2022-11-10T01:25:53.187Z,101533.47
2022-11-10T01:28:40.400Z,101547.63
2022-11-10T01:31:28.432Z,101535.19
2022-11-10T01:34:15.347Z,101545.84
2022-11-10T01:37:02.501Z,101550.19
2022-11-10T01:39:49.108Z,101538.69
2022-11-10T01:42:46.849Z,101432.81
2022-11-10T01:45:51.958Z,101542.25
2022-11-10T01:48:45.944Z,101541.34
2022-11-10T01:51:39.681Z,101559.97
2022-11-10T01:54:31.081Z,101554.69
2022-11-10T01:57:18.684Z,101552.00
2022-11-10T02:00:08.080Z,101568.94
2022-11-10T02:03:02.293Z,101577.03
2022-11-10T02:05:52.003Z,101593.81
2022-11-10T02:08:38.850Z,101595.59
2022-11-10T02:11:26.306Z,101592.94
2022-11-10T02:14:15.379Z,101582.28
2022-11-10T02:17:04.800Z,101596.47
2022-11-10T02:19:53.324Z,101603.59
2022-11-10T02:22:42.238Z,101611.59
2022-11-10T02:25:34.115Z,101612.50
2022-11-10T02:28:21.110Z,101616.97
2022-11-10T02:31:09.317Z,101609.00
2022-11-10T02:33:55.958Z,101621.41
2022-11-10T02:36:43.120Z,101603.75
2022-11-10T02:39:31.258Z,101639.13
2022-11-10T02:42:18.258Z,101638.25
2022-11-10T02:45:06.624Z,101548.16
2022-11-10T02:47:53.443Z,101630.28
2022-11-10T02:50:41.296Z,101637.38
2022-11-10T02:53:28.642Z,101613.53
2022-11-10T02:56:17.135Z,101637.41
2022-11-10T02:59:04.869Z,101651.56
2022-11-10T03:01:51.508Z,101651.59
2022-11-10T03:04:38.444Z,101659.56
2022-11-10T03:07:25.552Z,101664.00
2022-11-10T03:10:12.324Z,101652.53
2022-11-10T03:13:02.990Z,101621.63
2022-11-10T03:15:50.395Z,101658.75
2022-11-10T03:18:37.140Z,101666.72
2022-11-10T03:21:24.130Z,101676.47
2022-11-10T03:24:11.541Z,101681.81
2022-11-10T03:26:58.364Z,101652.63
2022-11-10T03:29:46.669Z,101673.84
2022-11-10T03:32:33.890Z,101671.19
2022-11-10T03:35:20.786Z,101672.97
2022-11-10T03:38:07.786Z,101674.75
2022-11-10T03:41:18.020Z,101678.28
2022-11-10T03:44:01.604Z,101688.06
2022-11-10T03:46:51.747Z,101688.09
2022-11-10T03:49:38.976Z,101685.41
2022-11-10T03:52:25.944Z,101684.56
2022-11-10T03:55:14.900Z,101691.63
2022-11-10T03:58:03.958Z,101704.00
2022-11-10T04:00:50.660Z,101705.78
2022-11-10T04:03:38.942Z,101708.47
2022-11-10T04:06:43.180Z,101716.44
2022-11-10T04:09:30.176Z,101717.34
2022-11-10T04:12:34.504Z,101711.13
2022-11-10T04:15:39.512Z,101701.38
2022-11-10T04:18:26.449Z,101722.66
2022-11-10T04:21:14.987Z,101718.22
2022-11-10T04:24:01.851Z,101719.97
2022-11-10T04:26:49.399Z,101727.94
2022-11-10T04:29:36.358Z,101732.34
2022-11-10T04:32:23.520Z,101733.22
2022-11-10T04:35:10.973Z,101743.91
2022-11-10T04:37:59.216Z,101765.13
2022-11-10T04:40:46.145Z,101713.78
2022-11-10T04:43:33.826Z,101761.63
2022-11-10T04:46:25.099Z,101767.81
2022-11-10T04:49:12.419Z,101764.25
2022-11-10T04:51:59.549Z,101765.09
2022-11-10T04:54:47.748Z,101773.09
2022-11-10T04:57:34.826Z,101776.66
2022-11-10T05:00:22.097Z,101701.38
2022-11-10T05:03:11.893Z,101771.31
2022-11-10T05:05:59.071Z,101772.22
2022-11-10T05:08:47.387Z,101768.66
2022-11-10T05:11:35.517Z,101766.88
2022-11-10T05:14:22.354Z,101773.09
2022-11-10T05:17:09.448Z,101778.41
2022-11-10T05:19:56.302Z,101760.69
2022-11-10T05:22:49.152Z,101789.03
2022-11-10T05:25:38.535Z,101778.41
2022-11-10T05:28:26.803Z,101796.97
2022-11-10T05:31:14.332Z,101773.06
2022-11-10T05:34:01.354Z,101786.34
2022-11-10T05:36:48.118Z,101777.50
2022-11-10T05:39:34.984Z,101797.91
2022-11-10T05:42:22.007Z,101789.06
2022-11-10T05:45:11.723Z,101794.38
2022-11-10T05:47:58.395Z,101763.34
2022-11-10T05:50:45.807Z,101788.97
2022-11-10T05:53:32.726Z,101779.28
2022-11-10T05:56:19.668Z,101811.13
2022-11-10T05:59:06.963Z,101817.34
2022-11-10T06:01:55.740Z,101813.81
2022-11-10T06:04:42.482Z,101793.44
2022-11-10T06:07:29.527Z,101827.09
2022-11-10T06:10:17.198Z,101830.66
2022-11-10T06:13:04.780Z,101810.25
2022-11-10T06:15:51.497Z,101830.63
2022-11-10T06:18:40.095Z,101835.94
2022-11-10T06:21:26.894Z,101812.00
2022-11-10T06:24:14.163Z,101823.53
2022-11-10T06:27:00.730Z,101843.88
2022-11-10T06:29:47.855Z,101843.88
2022-11-10T06:32:36.185Z,101855.38
2022-11-10T06:35:25.370Z,101852.75
2022-11-10T06:38:13.228Z,101862.50
2022-11-10T06:41:00.389Z,101828.78
2022-11-10T06:43:47.237Z,101880.19
2022-11-10T06:46:39.561Z,101881.06
2022-11-10T06:49:29.215Z,101887.28
2022-11-10T06:52:17.835Z,101896.13
2022-11-10T06:55:05.544Z,101889.94
2022-11-10T06:57:54.399Z,101903.22
2022-11-10T07:00:41.199Z,101915.63
2022-11-10T07:03:31.514Z,101884.59
2022-11-10T07:06:18.210Z,101922.69
2022-11-10T07:09:06.673Z,101899.66
2022-11-10T07:11:53.187Z,101920.09
2022-11-10T07:14:40.129Z,101887.28
2022-11-10T07:17:27.218Z,101906.81
2022-11-10T07:20:14.201Z,101913.94
2022-11-10T07:23:02.892Z,101923.69
2022-11-10T07:25:51.899Z,101892.69
2022-11-10T07:28:38.849Z,101929.91
2022-11-10T07:31:25.875Z,101884.72
2022-11-10T07:34:13.258Z,101949.41
2022-11-10T07:37:00.410Z,101934.31
2022-11-10T07:39:47.298Z,101942.28
2022-11-10T07:42:41.215Z,101955.53
2022-11-10T07:45:28.649Z,101888.16
2022-11-10T07:48:15.759Z,101947.34
2022-11-10T07:51:02.761Z,101949.91
2022-11-10T07:53:49.863Z,101940.09
2022-11-10T07:56:36.558Z,101961.31
2022-11-10T07:59:24.969Z,101973.59
2022-11-10T08:02:13.013Z,101966.38
2022-11-10T08:04:59.701Z,101975.97
2022-11-10T08:07:46.779Z,101978.50
2022-11-10T08:10:34.848Z,101997.09
2022-11-10T08:13:23.474Z,101989.88
2022-11-10T08:16:11.989Z,101989.88
2022-11-10T08:18:59.039Z,101998.84
2022-11-10T08:21:45.970Z,101991.13
2022-11-10T08:24:32.799Z,102013.47
2022-11-10T08:27:19.573Z,102022.34
2022-11-10T08:30:09.222Z,102022.34
2022-11-10T08:33:00.329Z,102017.06
2022-11-10T08:35:49.666Z,102018.84
2022-11-10T08:38:36.463Z,101996.69
2022-11-10T08:41:23.486Z,102017.00
2022-11-10T08:44:11.182Z,102021.34
2022-11-10T08:46:58.350Z,102030.06
2022-11-10T08:49:46.887Z,102017.50
2022-11-10T08:52:33.515Z,102018.13
2022-11-10T08:55:21.586Z,102023.22
2022-11-10T08:58:09.594Z,102023.88
2022-11-10T09:00:56.321Z,102017.47
2022-11-10T09:03:43.312Z,102017.19
2022-11-10T09:06:31.627Z,102008.22
2022-11-10T09:09:18.507Z,102018.56
2022-11-10T09:12:05.908Z,102029.25
2022-11-10T09:14:53.316Z,102035.41
2022-11-10T09:17:41.940Z,102034.09
2022-11-10T09:20:30.007Z,101982.81
2022-11-10T09:23:20.676Z,102033.75
2022-11-10T09:26:08.127Z,102036.06
2022-11-10T09:28:55.272Z,102043.34
2022-11-10T09:31:44.520Z,102010.63
2022-11-10T09:34:31.968Z,102040.88
2022-11-10T09:37:18.732Z,102056.56
2022-11-10T09:40:12.767Z,102048.69
2022-11-10T09:43:02.341Z,102067.59
2022-11-10T09:45:52.571Z,102065.03
2022-11-10T09:48:45.575Z,102076.84
2022-11-10T09:51:37.871Z,102064.22
2022-11-10T09:54:37.156Z,102090.53
2022-11-10T09:57:27.947Z,102106.50
2022-11-10T10:00:16.750Z,102111.94
2022-11-10T10:03:06.117Z,102121.75
2022-11-10T10:06:04.729Z,102128.31
2022-11-10T10:09:07.395Z,102131.75
2022-11-10T10:12:12.372Z,102148.84
2022-11-10T10:15:18.087Z,102150.72
2022-11-10T10:18:22.720Z,102152.53
2022-11-10T10:21:26.539Z,102148.31
2022-11-10T10:24:21.738Z,102138.56
2022-11-10T10:27:14.483Z,102099.56
2022-11-10T10:30:02.611Z,102133.31
2022-11-10T10:32:49.502Z,102114.75
2022-11-10T10:35:41.592Z,102149.63
2022-11-10T10:38:34.938Z,102148.75
2022-11-10T10:41:26.301Z,102144.47
2022-11-10T10:44:16.183Z,102153.47
2022-11-10T10:47:04.967Z,102154.41
2022-11-10T10:49:51.823Z,102166.06
2022-11-10T10:52:38.942Z,102174.09
2022-11-10T10:55:31.024Z,102124.59
2022-11-10T10:58:26.322Z,102106.88
2022-11-10T11:01:31.557Z,102178.63
2022-11-10T11:04:34.490Z,102183.22
2022-11-10T11:07:24.827Z,102140.72
2022-11-10T11:10:24.339Z,102196.72
2022-11-10T11:13:16.595Z,102204.75
2022-11-10T11:16:07.221Z,102163.91
2022-11-10T11:18:54.094Z,102195.88
2022-11-10T11:21:57.046Z,102197.72
2022-11-10T11:24:50.406Z,102196.78
2022-11-10T11:27:49.342Z,102208.50
2022-11-10T11:30:51.572Z,102213.94
2022-11-10T11:33:47.701Z,102195.28
2022-11-10T11:36:45.672Z,102175.81
2022-11-10T11:39:45.058Z,102208.47
2022-11-10T11:42:51.638Z,102181.81
2022-11-10T11:45:50.209Z,102211.03
2022-11-10T11:49:03.647Z,102213.81
2022-11-10T11:52:03.308Z,102215.59
2022-11-10T11:55:13.350Z,102223.66
2022-11-10T11:58:24.935Z,102194.44
2022-11-10T12:01:37.618Z,102223.75
2022-11-10T12:04:46.095Z,102204.34
2022-11-10T12:07:45.636Z,102233.69
2022-11-10T12:10:46.978Z,101887.19
2022-11-10T12:13:39.715Z,102233.75
2022-11-10T12:16:30.710Z,102214.22
2022-11-10T12:19:24.104Z,102231.09
2022-11-10T12:22:20.278Z,102231.16
2022-11-10T12:25:20.885Z,102218.72
2022-11-10T12:28:17.498Z,102218.69
2022-11-10T12:31:11.218Z,102222.22
2022-11-10T12:34:03.246Z,102220.38
2022-11-10T12:36:52.050Z,102222.19
2022-11-10T12:39:49.230Z,102231.91
2022-11-10T12:42:39.795Z,102230.13
2022-11-10T12:45:32.119Z,102166.19
2022-11-10T12:48:20.106Z,102232.78
2022-11-10T12:51:14.101Z,102244.31
2022-11-10T12:54:01.684Z,102217.72
2022-11-10T12:56:53.386Z,102237.19
2022-11-10T12:59:55.133Z,102237.16
2022-11-10T13:02:45.075Z,102210.50
2022-11-10T13:05:40.937Z,102235.34
2022-11-10T13:08:35.017Z,102207.91
2022-11-10T13:11:32.446Z,102225.56
2022-11-10T13:14:26.093Z,102205.16
2022-11-10T13:17:53.606Z,102213.94
2022-11-10T13:20:50.277Z,102198.94
2022-11-10T13:24:19.194Z,102202.44
2022-11-10T13:27:10.918Z,102185.66
2022-11-10T13:29:59.778Z,102206.03
2022-11-10T13:32:47.916Z,102211.31
2022-11-10T13:35:55.668Z,102180.28
2022-11-10T13:38:44.382Z,102192.69
2022-11-10T13:41:34.708Z,102207.81
2022-11-10T13:44:26.909Z,102195.41
2022-11-10T13:47:44.147Z,102221.25
2022-11-10T13:50:52.509Z,102196.34
2022-11-10T13:53:53.835Z,102229.28
2022-11-10T13:57:06.731Z,102233.75
2022-11-10T13:59:56.965Z,102233.78
2022-11-10T14:02:55.072Z,102238.25
2022-11-10T14:06:04.757Z,102238.28
2022-11-10T14:09:00.426Z,102124.72
2022-11-10T14:11:51.930Z,102155.81
2022-11-10T14:14:53.243Z,102248.94
2022-11-10T14:17:45.587Z,102268.50
2022-11-10T14:20:40.548Z,102262.38
2022-11-10T14:23:36.004Z,102277.44
2022-11-10T14:26:30.331Z,102282.78
2022-11-10T14:29:38.428Z,102284.53
2022-11-10T14:32:26.552Z,102287.19
2022-11-10T14:35:24.159Z,102274.81
2022-11-10T14:38:21.512Z,102289.03
2022-11-10T14:41:19.094Z,102294.34
2022-11-10T14:44:08.455Z,102272.16
2022-11-10T14:46:56.414Z,102291.69
2022-11-10T14:49:45.140Z,102295.25
2022-11-10T14:52:32.449Z,102331.78
2022-11-10T14:55:23.371Z,102299.72
2022-11-10T14:58:18.884Z,102287.31
2022-11-10T15:01:08.778Z,102296.22
2022-11-10T15:03:57.859Z,102305.06
2022-11-10T15:06:47.206Z,102300.63
2022-11-10T15:09:35.359Z,102307.00
2022-11-10T15:12:27.675Z,102307.75
2022-11-10T15:15:23.274Z,102298.91
2022-11-10T15:18:26.972Z,102295.34
2022-11-10T15:21:14.772Z,102283.75
2022-11-10T15:24:06.480Z,102290.91
2022-11-10T15:26:53.151Z,102274.88
2022-11-10T15:29:40.497Z,102279.34
2022-11-10T15:32:37.132Z,102298.00
2022-11-10T15:35:31.943Z,102288.22
2022-11-10T15:38:37.086Z,102306.06
2022-11-10T15:41:27.692Z,102211.97
2022-11-10T15:44:18.623Z,102308.72
2022-11-10T15:47:06.430Z,102318.56
2022-11-10T15:49:54.626Z,102283.03
2022-11-10T15:52:41.670Z,102317.66
2022-11-10T15:55:29.848Z,102319.44
2022-11-10T15:58:20.978Z,102310.56
2022-11-10T16:01:11.597Z,102205.81
2022-11-10T16:03:59.704Z,102312.34
2022-11-10T16:06:48.680Z,102312.38
2022-11-10T16:09:35.381Z,102212.91
2022-11-10T16:12:24.535Z,102339.03
2022-11-10T16:15:19.801Z,102299.94
2022-11-10T16:18:13.620Z,102322.19
2022-11-10T16:21:00.573Z,102338.19
2022-11-10T16:23:49.096Z,102325.75
2022-11-10T16:26:38.885Z,102332.84
2022-11-10T16:29:26.300Z,102312.41
2022-11-10T16:32:13.507Z,102323.97
2022-11-10T16:35:00.616Z,102322.16
2022-11-10T16:37:47.840Z,102349.75
2022-11-10T16:40:35.837Z,102358.63
2022-11-10T16:43:23.357Z,102352.41
2022-11-10T16:46:23.073Z,102341.75
2022-11-10T16:49:26.568Z,102331.06
2022-11-10T16:52:16.713Z,102368.44
2022-11-10T16:55:04.007Z,102056.66
2022-11-10T16:57:52.233Z,102366.63
2022-11-10T17:00:40.939Z,102317.75
2022-11-10T17:03:34.001Z,102345.31
2022-11-10T17:06:22.032Z,102342.63
2022-11-10T17:09:17.173Z,102333.75
2022-11-10T17:12:04.144Z,102357.75
2022-11-10T17:14:52.645Z,102377.28
2022-11-10T17:17:41.212Z,102368.41
2022-11-10T17:20:35.372Z,102186.19
2022-11-10T17:23:24.840Z,102379.97
2022-11-10T17:26:15.265Z,102361.28
2022-11-10T17:29:02.110Z,102379.94
2022-11-10T17:31:51.459Z,102372.84
2022-11-10T17:34:38.427Z,102350.59
2022-11-10T17:37:27.394Z,102390.59
2022-11-10T17:40:21.444Z,102370.13
2022-11-10T17:43:11.579Z,102387.91
2022-11-10T17:45:58.894Z,102290.13
2022-11-10T17:48:47.865Z,102360.34
2022-11-10T17:51:35.887Z,102390.59
2022-11-10T17:54:23.051Z,102389.72
2022-11-10T17:57:11.781Z,102381.66
2022-11-10T17:59:58.424Z,102329.22
2022-11-10T18:02:49.948Z,102375.47
2022-11-10T18:05:42.759Z,102376.34
2022-11-10T18:08:31.706Z,102383.47
2022-11-10T18:11:19.768Z,102379.91
2022-11-10T18:14:06.410Z,102380.78
2022-11-10T18:16:53.703Z,102388.81
2022-11-10T18:19:40.464Z,102376.34
2022-11-10T18:22:28.841Z,102363.84
2022-11-10T18:25:15.582Z,102364.75
2022-11-10T18:28:02.784Z,102381.63
2022-11-10T18:30:49.688Z,102390.53
2022-11-10T18:33:37.824Z,102398.50
2022-11-10T18:36:24.666Z,102417.16
2022-11-10T18:39:13.197Z,102418.09
2022-11-10T18:42:01.259Z,102420.75
2022-11-10T18:44:47.920Z,102406.47
2022-11-10T18:47:37.769Z,102376.31
2022-11-10T18:50:24.545Z,102423.44
2022-11-10T18:53:11.718Z,102422.53
2022-11-10T18:56:00.273Z,102368.22
2022-11-10T18:58:56.375Z,102352.16
2022-11-10T19:01:44.491Z,102434.91
2022-11-10T19:04:31.644Z,102410.91
2022-11-10T19:07:18.596Z,102409.16
2022-11-10T19:10:06.582Z,102336.22
2022-11-10T19:12:54.762Z,102437.59
2022-11-10T19:15:42.294Z,102428.72
2022-11-10T19:18:30.891Z,102441.19
2022-11-10T19:21:23.477Z,102438.56
2022-11-10T19:24:10.510Z,102440.25
2022-11-10T19:26:57.287Z,102464.31
2022-11-10T19:29:45.739Z,102444.69
2022-11-10T19:32:32.531Z,102450.94
2022-11-10T19:35:20.929Z,102441.22
2022-11-10T19:38:07.991Z,102430.53
2022-11-10T19:40:55.413Z,102332.66
2022-11-10T19:43:47.293Z,102426.06
2022-11-10T19:46:37.201Z,102405.63
2022-11-10T19:49:24.559Z,102403.81
2022-11-10T19:52:11.562Z,102410.06
2022-11-10T19:54:58.877Z,102428.72
2022-11-10T19:57:48.927Z,102408.25
2022-11-10T20:00:36.109Z,102372.66
2022-11-10T20:03:24.714Z,102424.25
2022-11-10T20:06:14.622Z,102429.56
2022-11-10T20:09:01.647Z,102445.53
2022-11-10T20:11:48.603Z,102452.59
2022-11-10T20:14:35.648Z,102441.06
2022-11-10T20:17:22.786Z,102462.34
2022-11-10T20:20:11.586Z,102446.34
2022-11-10T20:23:02.911Z,102441.88
2022-11-10T20:25:50.077Z,102431.25
2022-11-10T20:28:39.388Z,102449.03
2022-11-10T20:31:27.148Z,102444.56
2022-11-10T20:34:15.193Z,102429.50
2022-11-10T20:37:03.942Z,102451.72
2022-11-10T20:39:51.303Z,102399.09
2022-11-10T20:42:42.541Z,102395.56
2022-11-10T20:45:29.942Z,102487.19
2022-11-10T20:48:17.025Z,102454.31
2022-11-10T20:51:11.213Z,102445.38
2022-11-10T20:54:01.171Z,102448.06
2022-11-10T20:56:48.080Z,102420.38
2022-11-10T20:59:34.999Z,102169.28
2022-11-10T21:02:21.976Z,102463.06
2022-11-10T21:05:09.908Z,102463.91
2022-11-10T21:07:56.857Z,102424.66
2022-11-10T21:10:52.028Z,102478.97
2022-11-10T21:13:39.464Z,102489.59
2022-11-10T21:16:26.606Z,102494.94
2022-11-10T21:19:13.409Z,102495.81
2022-11-10T21:22:00.485Z,102517.16
2022-11-10T21:24:47.344Z,102532.31
2022-11-10T21:27:35.714Z,102523.41
2022-11-10T21:30:23.861Z,102527.81
2022-11-10T21:33:11.780Z,102540.22
2022-11-10T21:35:58.832Z,102540.22
2022-11-10T21:38:50.228Z,102525.91
2022-11-10T21:41:37.141Z,102534.00
2022-11-10T21:44:25.817Z,102532.19
2022-11-10T21:47:12.635Z,102513.59
2022-11-10T21:49:59.771Z,102521.53
2022-11-10T21:52:46.746Z,102499.28
2022-11-10T21:55:33.925Z,102539.22
2022-11-10T21:58:20.891Z,102540.16
2022-11-10T22:01:13.053Z,102518.78
2022-11-10T22:03:59.919Z,102516.16
2022-11-10T22:07:04.444Z,102530.38
2022-11-10T22:10:09.469Z,102537.50
2022-11-10T22:13:13.900Z,102542.78
2022-11-10T22:16:18.736Z,102544.59
2022-11-10T22:19:09.793Z,102396.63
2022-11-10T22:22:00.921Z,102552.63
2022-11-10T22:24:50.227Z,102554.38
2022-11-10T22:27:37.163Z,102515.09
2022-11-10T22:30:24.345Z,102550.78
2022-11-10T22:33:25.876Z,102538.31
2022-11-10T22:36:16.919Z,102540.91
2022-11-10T22:39:04.956Z,102553.22
2022-11-10T22:42:09.206Z,102509.72
2022-11-10T22:44:56.009Z,102573.81
2022-11-10T22:47:56.886Z,102568.44
2022-11-10T22:50:43.658Z,102535.47
2022-11-10T22:53:31.805Z,102580.88
2022-11-10T22:56:19.249Z,102559.50
2022-11-10T22:59:06.346Z,102575.50
2022-11-10T23:01:53.351Z,102583.47
2022-11-10T23:04:40.451Z,102561.94
2022-11-10T23:07:27.102Z,102616.25
2022-11-10T23:10:16.735Z,102601.16
2022-11-10T23:13:03.858Z,102609.97
2022-11-10T23:15:53.141Z,102600.16
2022-11-10T23:18:42.340Z,102599.13
2022-11-10T23:21:31.630Z,102618.69
2022-11-10T23:24:22.766Z,102610.81
2022-11-10T23:27:10.954Z,102625.84
2022-11-10T23:29:57.956Z,102619.69
2022-11-10T23:32:44.915Z,102614.34
2022-11-10T23:35:32.805Z,102619.56
2022-11-10T23:38:19.906Z,102576.81
2022-11-10T23:41:08.815Z,102614.22
2022-11-10T23:43:57.258Z,102608.81
2022-11-10T23:46:44.283Z,102607.81
2022-11-10T23:49:31.368Z,102589.19
2022-11-10T23:52:18.421Z,102614.88
2022-11-10T23:55:06.283Z,102621.09
2022-11-10T23:57:53.231Z,102613.06
